createdAt,value
2022-07-29T00:00:02.206Z,14.90
2022-07-29T00:02:51.171Z,14.88
2022-07-29T00:05:17.571Z,14.86
2022-07-29T00:07:44.299Z,14.83
2022-07-29T00:10:10.541Z,14.77
2022-07-29T00:12:37.037Z,14.73
2022-07-29T00:15:04.918Z,14.69
2022-07-29T00:17:31.365Z,14.65
2022-07-29T00:19:57.699Z,14.59
2022-07-29T00:22:24.128Z,14.57
2022-07-29T00:24:50.985Z,14.58
2022-07-29T00:27:18.226Z,14.58
2022-07-29T00:29:45.106Z,14.60
2022-07-29T00:32:11.731Z,14.55
2022-07-29T00:34:54.433Z,14.48
2022-07-29T00:37:21.169Z,14.43
2022-07-29T00:39:47.989Z,14.42
2022-07-29T00:42:14.311Z,14.40
2022-07-29T00:44:41.841Z,14.40
2022-07-29T00:47:12.197Z,14.42
2022-07-29T00:49:43.019Z,14.41
2022-07-29T00:52:11.438Z,14.39
2022-07-29T00:54:44.442Z,14.37
2022-07-29T00:57:13.016Z,14.35
2022-07-29T00:59:40.719Z,14.34
2022-07-29T01:02:07.361Z,14.30
2022-07-29T01:04:34.315Z,14.27
2022-07-29T01:07:03.105Z,14.24
2022-07-29T01:09:42.842Z,14.22
2022-07-29T01:12:34.428Z,14.23
2022-07-29T01:15:03.067Z,14.22
2022-07-29T01:17:52.723Z,14.22
2022-07-29T01:20:31.897Z,14.23
2022-07-29T01:23:19.361Z,14.22
2022-07-29T01:26:08.617Z,14.20
2022-07-29T01:28:50.896Z,14.18
2022-07-29T01:31:24.916Z,14.17
2022-07-29T01:33:58.465Z,14.20
2022-07-29T01:36:34.191Z,14.21
2022-07-29T01:39:12.675Z,14.21
2022-07-29T01:41:47.749Z,14.24
2022-07-29T01:44:20.470Z,14.23
2022-07-29T01:46:54.326Z,14.19
2022-07-29T01:49:28.584Z,14.13
2022-07-29T01:52:00.826Z,14.06
2022-07-29T01:54:48.100Z,14.04
2022-07-29T01:57:20.496Z,14.03
2022-07-29T01:59:48.776Z,14.03
2022-07-29T02:02:21.115Z,13.97
2022-07-29T02:04:49.824Z,13.93
2022-07-29T02:07:20.536Z,13.89
2022-07-29T02:09:49.702Z,13.84
2022-07-29T02:12:19.114Z,13.80
2022-07-29T02:14:50.664Z,13.74
2022-07-29T02:17:24.027Z,13.72
2022-07-29T02:19:52.385Z,13.70
2022-07-29T02:22:21.037Z,13.59
2022-07-29T02:24:49.302Z,13.54
2022-07-29T02:27:17.548Z,13.55
2022-07-29T02:29:47.817Z,13.55
2022-07-29T02:32:16.772Z,13.50
2022-07-29T02:34:45.634Z,13.49
2022-07-29T02:37:14.348Z,13.52
2022-07-29T02:39:44.953Z,13.56
2022-07-29T02:42:15.947Z,13.60
2022-07-29T02:44:43.433Z,13.67
2022-07-29T02:59:43.051Z,14.31
2022-07-29T03:02:12.497Z,14.29
2022-07-29T03:04:43.737Z,14.18
2022-07-29T03:07:15.317Z,14.06
2022-07-29T03:09:43.780Z,13.94
2022-07-29T03:12:12.184Z,13.80
2022-07-29T03:14:40.049Z,13.70
2022-07-29T03:17:08.189Z,13.64
2022-07-29T03:19:36.291Z,13.61
2022-07-29T03:22:04.800Z,13.56
2022-07-29T03:24:35.121Z,13.48
2022-07-29T03:27:04.233Z,13.43
2022-07-29T03:29:33.584Z,13.39
2022-07-29T03:32:04.290Z,13.41
2022-07-29T03:34:36.203Z,13.44
2022-07-29T03:37:04.594Z,13.45
2022-07-29T03:39:37.952Z,13.47
2022-07-29T03:42:08.620Z,13.46
2022-07-29T03:44:38.077Z,13.45
2022-07-29T03:47:08.128Z,13.44
2022-07-29T03:49:38.877Z,13.46
2022-07-29T03:52:07.157Z,13.48
2022-07-29T03:54:35.029Z,13.48
2022-07-29T03:57:04.041Z,13.51
2022-07-29T03:59:34.742Z,13.54
2022-07-29T04:02:06.306Z,13.60
2022-07-29T04:04:35.811Z,13.65
2022-07-29T04:07:04.708Z,13.73
2022-07-29T04:09:33.594Z,13.79
2022-07-29T04:12:03.482Z,13.86
2022-07-29T04:14:35.986Z,13.90
2022-07-29T04:17:05.054Z,13.91
2022-07-29T04:19:33.419Z,13.92
2022-07-29T04:22:01.624Z,13.91
2022-07-29T04:24:29.704Z,13.88
2022-07-29T04:26:57.314Z,13.84
2022-07-29T04:29:25.239Z,13.84
2022-07-29T04:31:52.901Z,13.89
2022-07-29T04:34:21.123Z,13.95
2022-07-29T04:36:48.960Z,14.02
2022-07-29T04:39:22.632Z,14.10
2022-07-29T04:41:52.565Z,14.17
2022-07-29T04:44:28.354Z,14.25
2022-07-29T04:46:58.393Z,14.33
2022-07-29T04:49:26.487Z,14.43
2022-07-29T04:51:54.464Z,14.53
2022-07-29T04:54:22.608Z,14.62
2022-07-29T04:56:50.351Z,14.70
2022-07-29T04:59:17.984Z,14.78
2022-07-29T05:01:45.711Z,14.85
2022-07-29T05:04:14.096Z,14.92
2022-07-29T05:06:41.972Z,15.01
2022-07-29T05:09:09.560Z,15.11
2022-07-29T05:11:37.184Z,15.23
2022-07-29T05:14:04.793Z,15.36
2022-07-29T05:16:32.409Z,15.51
2022-07-29T05:19:00.097Z,15.66
2022-07-29T05:21:27.767Z,15.77
2022-07-29T05:23:55.441Z,15.86
2022-07-29T05:26:23.167Z,15.94
2022-07-29T05:28:50.834Z,16.04
2022-07-29T05:31:18.731Z,16.14
2022-07-29T05:33:46.557Z,16.21
2022-07-29T05:36:14.164Z,16.24
2022-07-29T05:38:41.771Z,16.29
2022-07-29T05:41:09.387Z,16.37
2022-07-29T05:43:37.152Z,16.42
2022-07-29T05:46:04.837Z,16.50
2022-07-29T05:48:33.152Z,16.60
2022-07-29T05:51:01.072Z,16.69
2022-07-29T05:53:28.767Z,16.78
2022-07-29T05:55:56.378Z,16.88
2022-07-29T05:58:24.105Z,16.99
2022-07-29T06:00:51.827Z,17.08
2022-07-29T06:03:19.450Z,17.13
2022-07-29T06:05:47.198Z,17.19
2022-07-29T06:08:14.942Z,17.25
2022-07-29T06:10:42.619Z,17.32
2022-07-29T06:13:10.445Z,17.43
2022-07-29T06:15:38.688Z,17.54
2022-07-29T06:18:10.016Z,17.63
2022-07-29T06:20:38.931Z,17.71
2022-07-29T06:23:06.595Z,17.77
2022-07-29T06:25:37.498Z,17.87
2022-07-29T06:28:05.198Z,17.95
2022-07-29T06:30:33.297Z,18.06
2022-07-29T06:33:02.741Z,18.18
2022-07-29T06:35:38.502Z,18.29
2022-07-29T06:38:29.929Z,18.39
2022-07-29T06:41:06.885Z,18.48
2022-07-29T06:43:50.178Z,18.55
2022-07-29T06:46:20.315Z,18.61
2022-07-29T06:48:48.804Z,18.67
2022-07-29T06:51:22.575Z,18.69
2022-07-29T06:54:00.141Z,18.69
2022-07-29T06:56:42.614Z,18.81
2022-07-29T06:59:12.405Z,18.88
2022-07-29T07:01:42.833Z,18.91
2022-07-29T07:04:11.131Z,18.96
2022-07-29T07:06:39.089Z,19.03
2022-07-29T07:09:07.354Z,19.07
2022-07-29T07:11:35.476Z,19.19
2022-07-29T07:14:04.243Z,19.29
2022-07-29T07:16:33.431Z,19.28
2022-07-29T07:19:01.907Z,19.32
2022-07-29T07:21:30.654Z,19.42
2022-07-29T07:24:00.136Z,19.46
2022-07-29T07:26:28.255Z,19.48
2022-07-29T07:28:56.007Z,19.52
2022-07-29T07:31:23.762Z,19.60
2022-07-29T07:33:52.668Z,19.72
2022-07-29T07:36:20.702Z,19.84
2022-07-29T07:38:48.385Z,19.90
2022-07-29T07:41:16.293Z,19.88
2022-07-29T07:43:44.033Z,19.91
2022-07-29T07:46:11.700Z,19.93
2022-07-29T07:48:39.466Z,19.97
2022-07-29T07:51:08.165Z,20.04
2022-07-29T07:53:36.753Z,20.15
2022-07-29T07:56:13.209Z,20.21
2022-07-29T07:58:41.529Z,20.14
2022-07-29T08:01:10.421Z,20.18
2022-07-29T08:03:39.707Z,20.22
2022-07-29T08:06:07.471Z,20.33
2022-07-29T08:08:35.174Z,20.47
2022-07-29T08:11:09.077Z,20.60
2022-07-29T08:13:39.089Z,20.70
2022-07-29T08:16:15.895Z,20.79
2022-07-29T08:18:45.738Z,20.86
2022-07-29T08:21:15.532Z,20.95
2022-07-29T08:24:00.735Z,21.02
2022-07-29T08:26:29.559Z,21.04
2022-07-29T08:28:57.202Z,21.10
2022-07-29T08:31:24.974Z,21.24
2022-07-29T08:33:52.735Z,21.34
2022-07-29T08:36:21.835Z,21.40
2022-07-29T08:38:50.627Z,21.37
2022-07-29T08:41:20.249Z,21.23
2022-07-29T08:43:49.601Z,21.26
2022-07-29T08:46:18.499Z,21.38
2022-07-29T08:48:47.061Z,21.52
2022-07-29T08:51:26.430Z,21.71
2022-07-29T08:53:55.709Z,21.86
2022-07-29T08:56:24.161Z,21.99
2022-07-29T08:58:52.710Z,22.10
2022-07-29T09:01:36.482Z,22.29
2022-07-29T09:04:05.240Z,22.42
2022-07-29T09:06:37.764Z,22.52
2022-07-29T09:09:06.338Z,22.63
2022-07-29T09:11:34.411Z,22.73
2022-07-29T09:14:02.107Z,22.93
2022-07-29T09:16:53.057Z,23.13
2022-07-29T09:19:22.182Z,23.33
2022-07-29T09:22:06.012Z,23.59
2022-07-29T09:24:40.617Z,23.88
2022-07-29T09:27:13.195Z,24.00
2022-07-29T09:29:40.984Z,24.05
2022-07-29T09:32:10.814Z,24.04
2022-07-29T09:34:38.738Z,23.80
2022-07-29T09:37:06.360Z,23.88
2022-07-29T09:39:37.257Z,24.12
2022-07-29T09:42:07.046Z,24.23
2022-07-29T09:44:51.474Z,24.16
2022-07-29T09:47:22.581Z,24.04
2022-07-29T09:49:56.076Z,24.11
2022-07-29T09:52:24.848Z,24.19
2022-07-29T09:54:53.044Z,24.33
2022-07-29T09:57:30.357Z,24.46
2022-07-29T10:00:01.833Z,24.36
2022-07-29T10:02:41.973Z,24.15
2022-07-29T10:05:26.391Z,24.02
2022-07-29T10:07:57.221Z,24.00
2022-07-29T10:10:44.556Z,24.02
2022-07-29T10:13:16.521Z,24.13
2022-07-29T10:15:47.229Z,24.29
2022-07-29T10:18:18.089Z,24.46
2022-07-29T10:20:46.058Z,24.52
2022-07-29T10:23:14.835Z,24.57
2022-07-29T10:25:46.348Z,24.55
2022-07-29T10:28:16.763Z,24.59
2022-07-29T10:30:46.813Z,24.43
2022-07-29T10:33:38.272Z,24.44
2022-07-29T10:36:27.608Z,24.47
2022-07-29T10:39:24.436Z,24.57
2022-07-29T10:42:10.731Z,24.79
2022-07-29T10:44:42.024Z,24.99
2022-07-29T10:47:21.651Z,25.14
2022-07-29T10:50:01.701Z,25.49
2022-07-29T10:52:54.608Z,25.66
2022-07-29T10:55:45.898Z,25.65
2022-07-29T10:58:26.900Z,25.60
2022-07-29T11:00:57.549Z,25.42
2022-07-29T11:03:58.837Z,25.34
2022-07-29T11:07:05.245Z,25.32
2022-07-29T11:09:37.643Z,25.38
2022-07-29T11:12:42.207Z,25.39
2022-07-29T11:15:19.812Z,25.32
2022-07-29T11:18:03.371Z,25.31
2022-07-29T11:20:50.102Z,25.29
2022-07-29T11:23:33.687Z,25.26
2022-07-29T11:26:35.406Z,25.18
2022-07-29T11:29:21.850Z,25.15
2022-07-29T11:31:55.672Z,25.17
2022-07-29T11:34:33.249Z,25.24
2022-07-29T11:37:14.885Z,25.37
2022-07-29T11:40:10.677Z,25.62
2022-07-29T11:42:41.737Z,25.70
2022-07-29T11:45:43.218Z,25.78
2022-07-29T11:48:29.686Z,25.94
2022-07-29T11:50:50.641Z,26.26
2022-07-29T11:53:19.317Z,26.50
2022-07-29T11:55:56.235Z,26.69
2022-07-29T11:58:27.077Z,26.74
2022-07-29T12:00:56.248Z,26.81
2022-07-29T12:03:33.365Z,26.79
2022-07-29T12:06:13.405Z,26.75
2022-07-29T12:08:43.693Z,26.83
2022-07-29T12:11:21.257Z,26.82
2022-07-29T12:13:53.796Z,26.87
2022-07-29T12:16:25.573Z,26.98
2022-07-29T12:18:59.261Z,27.04
2022-07-29T12:21:28.860Z,27.04
2022-07-29T12:24:04.807Z,26.99
2022-07-29T12:26:37.767Z,26.97
2022-07-29T12:29:07.302Z,26.94
2022-07-29T12:31:42.835Z,26.86
2022-07-29T12:34:16.587Z,26.80
2022-07-29T12:36:44.847Z,26.45
2022-07-29T12:39:13.372Z,26.21
2022-07-29T12:41:41.113Z,26.17
2022-07-29T12:44:09.069Z,26.22
2022-07-29T12:46:36.774Z,26.16
2022-07-29T12:49:05.352Z,26.11
2022-07-29T12:51:38.818Z,26.12
2022-07-29T12:54:15.306Z,26.26
2022-07-29T12:56:45.449Z,26.39
2022-07-29T12:59:23.852Z,26.48
2022-07-29T13:01:52.999Z,26.47
2022-07-29T13:04:37.569Z,26.65
2022-07-29T13:07:08.073Z,26.94
2022-07-29T13:09:41.582Z,27.30
2022-07-29T13:12:11.707Z,27.61
2022-07-29T13:14:44.839Z,27.84
2022-07-29T13:17:28.743Z,28.27
2022-07-29T13:20:13.182Z,28.92
2022-07-29T13:22:43.293Z,29.48
2022-07-29T13:25:11.466Z,30.06
2022-07-29T13:27:40.478Z,30.42
2022-07-29T13:30:10.206Z,30.57
2022-07-29T13:32:38.680Z,30.29
2022-07-29T13:35:08.877Z,30.31
2022-07-29T13:37:39.284Z,30.45
2022-07-29T13:40:11.914Z,30.12
2022-07-29T13:42:40.056Z,29.74
2022-07-29T13:45:08.941Z,29.91
2022-07-29T13:47:36.588Z,30.32
2022-07-29T13:50:06.320Z,30.82
2022-07-29T13:52:35.412Z,31.32
2022-07-29T13:55:04.618Z,31.69
2022-07-29T13:57:32.785Z,31.96
2022-07-29T14:00:00.461Z,32.29
2022-07-29T14:02:28.173Z,32.66
2022-07-29T14:04:55.984Z,32.95
2022-07-29T14:07:24.483Z,33.07
2022-07-29T14:09:52.154Z,33.31
2022-07-29T14:12:20.200Z,33.48
2022-07-29T14:14:47.793Z,33.65
2022-07-29T14:17:16.333Z,33.84
2022-07-29T14:19:44.087Z,33.68
2022-07-29T14:22:11.879Z,33.13
2022-07-29T14:24:40.192Z,32.95
2022-07-29T14:27:08.765Z,32.92
2022-07-29T14:29:38.771Z,32.77
2022-07-29T14:32:08.461Z,33.11
2022-07-29T14:34:37.559Z,33.48
2022-07-29T14:37:09.314Z,33.77
2022-07-29T14:39:42.925Z,34.01
2022-07-29T14:42:13.051Z,33.96
2022-07-29T14:44:42.383Z,33.73
2022-07-29T14:47:10.405Z,33.61
2022-07-29T14:49:38.032Z,33.42
2022-07-29T14:52:06.006Z,33.34
2022-07-29T14:54:33.679Z,33.07
2022-07-29T14:57:01.783Z,32.70
2022-07-29T14:59:29.464Z,32.24
2022-07-29T15:01:57.474Z,31.24
2022-07-29T15:04:25.385Z,30.62
2022-07-29T15:06:53.023Z,30.32
2022-07-29T15:09:20.631Z,29.93
2022-07-29T15:11:48.493Z,29.64
2022-07-29T15:14:16.125Z,29.54
2022-07-29T15:16:46.738Z,29.64
2022-07-29T15:19:15.987Z,29.80
2022-07-29T15:21:48.838Z,29.86
2022-07-29T15:24:18.059Z,30.07
2022-07-29T15:26:46.977Z,30.19
2022-07-29T15:29:15.680Z,30.07
2022-07-29T15:31:44.127Z,29.78
2022-07-29T15:34:12.000Z,29.49
2022-07-29T15:36:55.552Z,29.37
2022-07-29T15:39:23.406Z,29.19
2022-07-29T15:41:52.110Z,28.88
2022-07-29T15:44:21.161Z,28.74
2022-07-29T15:47:05.798Z,28.65
2022-07-29T15:49:48.819Z,28.56
2022-07-29T15:52:25.039Z,28.45
2022-07-29T15:54:55.830Z,28.45
2022-07-29T15:57:24.767Z,28.39
2022-07-29T15:59:52.617Z,28.28
2022-07-29T16:02:20.709Z,28.03
2022-07-29T16:04:48.469Z,27.76
2022-07-29T16:07:16.392Z,27.78
2022-07-29T16:09:50.777Z,27.82
2022-07-29T16:12:20.819Z,27.83
2022-07-29T16:14:50.757Z,27.93
2022-07-29T16:17:19.257Z,28.06
2022-07-29T16:19:48.105Z,28.12
2022-07-29T16:22:15.807Z,28.17
2022-07-29T16:24:43.681Z,28.16
2022-07-29T16:27:11.356Z,27.96
2022-07-29T16:29:39.572Z,27.73
2022-07-29T16:32:07.481Z,27.53
2022-07-29T16:34:35.218Z,27.52
2022-07-29T16:37:03.575Z,27.66
2022-07-29T16:39:31.487Z,27.71
2022-07-29T16:42:01.011Z,27.83
2022-07-29T16:44:30.095Z,27.89
2022-07-29T16:46:58.821Z,28.21
2022-07-29T16:49:28.285Z,28.82
2022-07-29T16:51:56.043Z,29.26
2022-07-29T16:54:23.668Z,29.04
2022-07-29T16:56:51.281Z,28.50
2022-07-29T16:59:18.942Z,28.01
2022-07-29T17:01:46.700Z,27.50
2022-07-29T17:04:15.026Z,27.12
2022-07-29T17:06:42.973Z,26.98
2022-07-29T17:09:15.080Z,26.86
2022-07-29T17:11:53.654Z,26.58
2022-07-29T17:14:25.526Z,26.28
2022-07-29T17:17:02.587Z,26.03
2022-07-29T17:19:35.212Z,25.98
2022-07-29T17:22:18.686Z,26.00
2022-07-29T17:24:47.941Z,25.88
2022-07-29T17:27:16.779Z,25.72
2022-07-29T17:29:46.926Z,25.60
2022-07-29T17:32:14.569Z,25.81
2022-07-29T17:34:42.971Z,26.17
2022-07-29T17:37:12.051Z,26.34
2022-07-29T17:39:41.453Z,26.39
2022-07-29T17:42:14.167Z,26.58
2022-07-29T17:44:41.990Z,26.54
2022-07-29T17:47:15.708Z,26.75
2022-07-29T17:49:45.293Z,26.34
2022-07-29T17:52:13.280Z,25.85
2022-07-29T17:54:40.970Z,25.37
2022-07-29T17:57:08.695Z,25.04
2022-07-29T17:59:36.691Z,24.77
2022-07-29T18:02:04.459Z,24.46
2022-07-29T18:04:32.338Z,24.21
2022-07-29T18:07:00.465Z,24.18
2022-07-29T18:09:28.879Z,24.50
2022-07-29T18:11:56.488Z,24.40
2022-07-29T18:14:24.096Z,23.99
2022-07-29T18:16:51.847Z,23.85
2022-07-29T18:19:19.477Z,24.02
2022-07-29T18:21:54.010Z,24.24
2022-07-29T18:24:25.693Z,24.29
2022-07-29T18:26:53.975Z,24.30
2022-07-29T18:29:22.051Z,24.17
2022-07-29T18:31:50.313Z,24.02
2022-07-29T18:34:18.165Z,23.79
2022-07-29T18:36:46.234Z,23.55
2022-07-29T18:39:19.187Z,23.33
2022-07-29T18:41:51.391Z,23.01
2022-07-29T18:44:21.829Z,22.65
2022-07-29T18:46:52.420Z,22.35
2022-07-29T18:49:20.300Z,22.06
2022-07-29T18:51:49.422Z,21.85
2022-07-29T18:54:17.941Z,21.69
2022-07-29T18:56:46.804Z,21.53
2022-07-29T18:59:20.436Z,21.38
2022-07-29T19:01:49.239Z,21.22
2022-07-29T19:04:17.665Z,21.08
2022-07-29T19:06:45.421Z,20.95
2022-07-29T19:09:13.619Z,20.84
2022-07-29T19:11:41.577Z,20.75
2022-07-29T19:14:09.275Z,20.63
2022-07-29T19:16:36.944Z,20.52
2022-07-29T19:19:04.776Z,20.43
2022-07-29T19:21:32.544Z,20.32
2022-07-29T19:24:06.750Z,20.23
2022-07-29T19:26:36.793Z,20.13
2022-07-29T19:29:04.725Z,20.05
2022-07-29T19:31:32.716Z,19.98
2022-07-29T19:34:00.507Z,19.91
2022-07-29T19:36:28.336Z,19.84
2022-07-29T19:38:55.977Z,19.76
2022-07-29T19:41:23.590Z,19.72
2022-07-29T19:43:53.108Z,19.69
2022-07-29T19:46:22.125Z,19.62
2022-07-29T19:48:50.357Z,19.56
2022-07-29T19:51:18.076Z,19.51
2022-07-29T19:53:45.734Z,19.47
2022-07-29T19:56:13.811Z,19.40
2022-07-29T19:58:44.001Z,19.35
2022-07-29T20:01:11.741Z,19.33
2022-07-29T20:03:40.181Z,19.32
2022-07-29T20:06:08.481Z,19.28
2022-07-29T20:08:36.749Z,19.24
2022-07-29T20:11:05.419Z,19.19
2022-07-29T20:13:35.183Z,19.14
2022-07-29T20:16:06.374Z,19.10
2022-07-29T20:18:35.090Z,19.05
2022-07-29T20:21:04.656Z,19.03
2022-07-29T20:23:33.474Z,19.00
2022-07-29T20:26:02.442Z,18.97
2022-07-29T20:28:31.248Z,18.93
2022-07-29T20:30:58.984Z,18.88
2022-07-29T20:33:26.723Z,18.85
2022-07-29T20:35:55.727Z,18.82
2022-07-29T20:38:23.333Z,18.80
2022-07-29T20:40:52.747Z,18.75
2022-07-29T20:43:20.346Z,18.70
2022-07-29T20:45:48.777Z,18.67
2022-07-29T20:48:16.560Z,18.62
2022-07-29T20:50:45.030Z,18.56
2022-07-29T20:53:12.774Z,18.50
2022-07-29T20:55:40.610Z,18.46
2022-07-29T20:58:08.619Z,18.41
2022-07-29T21:00:36.633Z,18.38
2022-07-29T21:03:04.435Z,18.33
2022-07-29T21:05:32.731Z,18.28
2022-07-29T21:08:00.490Z,18.23
2022-07-29T21:10:29.317Z,18.22
2022-07-29T21:12:56.930Z,18.22
2022-07-29T21:15:25.255Z,18.20
2022-07-29T21:18:00.366Z,18.18
2022-07-29T21:20:29.141Z,18.15
2022-07-29T21:22:57.837Z,18.10
2022-07-29T21:25:26.092Z,18.07
2022-07-29T21:28:09.742Z,18.03
2022-07-29T21:30:37.374Z,17.99
2022-07-29T21:33:05.094Z,17.94
2022-07-29T21:36:07.382Z,17.92
2022-07-29T21:38:20.815Z,17.88
2022-07-29T21:40:50.519Z,17.84
2022-07-29T21:43:19.379Z,17.82
2022-07-29T21:45:52.919Z,17.78
2022-07-29T21:48:22.709Z,17.76
2022-07-29T21:50:53.102Z,17.72
2022-07-29T21:53:22.085Z,17.68
2022-07-29T21:55:51.117Z,17.64
2022-07-29T21:58:19.021Z,17.62
2022-07-29T22:00:46.688Z,17.61
2022-07-29T22:03:14.667Z,17.59
2022-07-29T22:05:42.554Z,17.57
2022-07-29T22:08:10.447Z,17.54
2022-07-29T22:10:38.171Z,17.51
2022-07-29T22:13:06.084Z,17.48
2022-07-29T22:15:33.832Z,17.46
2022-07-29T22:18:01.817Z,17.46
2022-07-29T22:20:29.452Z,17.42
2022-07-29T22:22:57.110Z,17.39
2022-07-29T22:25:24.842Z,17.33
2022-07-29T22:27:52.543Z,17.28
2022-07-29T22:30:20.135Z,17.24
2022-07-29T22:32:49.511Z,17.19
2022-07-29T22:35:17.575Z,17.11
2022-07-29T22:37:45.235Z,17.07
2022-07-29T22:40:12.910Z,17.02
2022-07-29T22:42:40.692Z,16.96
2022-07-29T22:45:10.585Z,16.92
2022-07-29T22:47:47.946Z,16.88
2022-07-29T22:50:17.073Z,16.83
2022-07-29T22:52:46.097Z,16.78
2022-07-29T22:55:14.015Z,16.74
2022-07-29T22:57:41.675Z,16.71
2022-07-29T23:00:12.635Z,16.67
2022-07-29T23:02:41.405Z,16.66
2022-07-29T23:05:10.098Z,16.61
2022-07-29T23:07:37.698Z,16.55
2022-07-29T23:10:07.612Z,16.48
2022-07-29T23:12:35.888Z,16.44
2022-07-29T23:15:05.691Z,16.41
2022-07-29T23:17:36.294Z,16.37
2022-07-29T23:20:07.831Z,16.34
2022-07-29T23:22:35.933Z,16.33
2022-07-29T23:25:04.820Z,16.31
2022-07-29T23:27:32.780Z,16.29
2022-07-29T23:30:00.465Z,16.26
2022-07-29T23:32:28.086Z,16.23
2022-07-29T23:34:55.749Z,16.16
2022-07-29T23:37:23.512Z,16.12
2022-07-29T23:39:51.160Z,16.12
2022-07-29T23:42:18.807Z,16.12
2022-07-29T23:44:46.452Z,16.10
2022-07-29T23:47:14.149Z,16.03
2022-07-29T23:49:41.799Z,15.95
2022-07-29T23:52:09.538Z,15.88
2022-07-29T23:54:37.186Z,15.86
2022-07-29T23:57:04.928Z,15.83
2022-07-29T23:59:32.578Z,15.81
